createdAt,value
2017-06-28T00:13:02.250Z,25.71
2017-06-28T00:15:34.223Z,25.72
2017-06-28T00:18:09.828Z,25.72
2017-06-28T00:20:42.710Z,25.70
2017-06-28T00:23:19.106Z,25.71
2017-06-28T00:25:52.076Z,25.70
2017-06-28T00:28:26.274Z,25.71
2017-06-28T11:56:12.411Z,27.55
2017-06-28T11:58:42.396Z,27.55
2017-06-28T12:01:11.286Z,27.48
2017-06-28T12:03:40.281Z,27.57
2017-06-28T12:06:09.073Z,27.55
2017-06-28T12:08:39.805Z,27.52
2017-06-28T12:11:10.022Z,27.59
2017-06-28T14:27:36.511Z,27.92
2017-06-28T14:30:05.487Z,27.93
2017-06-28T14:32:37.398Z,27.84
2017-06-28T14:35:07.139Z,27.82
2017-06-28T14:37:37.675Z,27.89
2017-06-28T14:40:10.676Z,27.84
2017-06-28T14:42:45.720Z,27.88
2017-06-28T14:45:22.119Z,27.87
2017-06-28T14:47:53.295Z,27.87
2017-06-28T14:50:27.409Z,27.88
2017-06-28T14:52:57.427Z,27.91
2017-06-28T14:55:30.832Z,27.95
2017-06-28T14:58:05.447Z,28.04
2017-06-28T15:00:34.552Z,28.02
2017-06-28T15:03:07.435Z,27.96
2017-06-28T15:05:40.632Z,27.88
2017-06-28T15:08:17.197Z,27.79
2017-06-28T15:10:52.214Z,27.68
2017-06-28T15:13:25.219Z,27.62
2017-06-28T15:15:58.092Z,27.56
2017-06-28T15:18:33.450Z,27.52
2017-06-28T15:21:09.074Z,27.45
2017-06-28T15:23:43.369Z,27.35
2017-06-28T15:26:17.087Z,27.31
2017-06-28T15:28:52.307Z,27.25
2017-06-28T15:31:31.276Z,27.19
2017-06-28T15:34:05.986Z,27.16
2017-06-28T15:36:41.218Z,27.12
2017-06-28T15:39:16.967Z,27.05
2017-06-28T15:41:52.176Z,27.03
2017-06-28T15:44:23.957Z,26.98
2017-06-28T15:46:59.198Z,26.97
2017-06-28T15:49:34.541Z,26.93
2017-06-28T15:52:12.238Z,26.87
2017-06-28T15:54:51.992Z,26.86
2017-06-28T15:57:25.960Z,26.83
2017-06-28T16:00:01.927Z,26.80
2017-06-28T16:02:35.902Z,26.77
2017-06-28T16:05:09.246Z,26.75
2017-06-28T16:07:44.376Z,26.71
2017-06-28T16:10:15.722Z,26.66
2017-06-28T16:12:49.635Z,26.64
2017-06-28T16:15:23.335Z,26.64
2017-06-28T16:17:57.711Z,26.64
2017-06-28T16:20:33.681Z,26.61
2017-06-28T16:23:08.647Z,26.48
2017-06-28T16:25:44.288Z,26.41
2017-06-28T16:28:21.678Z,26.35
2017-06-28T16:30:54.870Z,26.30
2017-06-28T16:33:33.078Z,26.24
2017-06-28T16:36:09.489Z,26.21
2017-06-28T16:38:43.458Z,26.19
2017-06-28T16:41:17.253Z,26.19
2017-06-28T16:43:49.211Z,26.16
2017-06-28T16:46:24.147Z,26.13
2017-06-28T16:48:54.874Z,26.12
2017-06-28T16:51:25.507Z,26.11
2017-06-28T16:54:00.947Z,26.02
2017-06-28T16:56:35.777Z,25.99
2017-06-28T16:59:11.731Z,26.00
2017-06-28T17:01:46.176Z,25.99
2017-06-28T17:04:19.960Z,26.00
2017-06-28T17:06:56.528Z,25.96
2017-06-28T17:09:30.432Z,25.93
2017-06-28T17:12:04.956Z,25.94
2017-06-28T17:14:37.126Z,25.96
2017-06-28T17:17:07.989Z,26.06
2017-06-28T17:19:41.458Z,26.14
2017-06-28T17:22:14.749Z,26.20
2017-06-28T17:24:49.580Z,26.24
2017-06-28T17:27:26.868Z,26.26
2017-06-28T17:30:01.878Z,26.27
2017-06-28T17:32:38.800Z,26.30
2017-06-28T17:35:11.888Z,26.31
2017-06-28T17:37:47.504Z,26.32
2017-06-28T17:40:19.734Z,26.33
2017-06-28T17:42:53.677Z,26.34
2017-06-28T17:45:28.610Z,26.35
2017-06-28T17:48:02.418Z,26.37
2017-06-28T17:50:36.584Z,26.37
2017-06-28T17:53:10.578Z,26.37
2017-06-28T17:55:43.523Z,26.37
2017-06-28T17:58:19.274Z,26.39
2017-06-28T18:00:54.413Z,26.39
2017-06-28T18:03:29.435Z,26.39
2017-06-28T18:06:02.397Z,26.40
2017-06-28T18:08:36.983Z,26.41
2017-06-28T18:11:12.289Z,26.42
2017-06-28T18:13:46.809Z,26.41
2017-06-28T18:16:21.153Z,26.41
2017-06-28T18:18:54.827Z,26.42
2017-06-28T18:21:28.208Z,26.41
2017-06-28T18:24:03.465Z,26.42
2017-06-28T18:26:37.300Z,26.43
2017-06-28T18:29:15.064Z,26.42
2017-06-28T18:31:49.124Z,26.43
2017-06-28T18:34:21.546Z,26.43
2017-06-28T18:36:57.203Z,26.44
2017-06-28T18:39:31.988Z,26.44
2017-06-28T18:42:08.392Z,26.44
2017-06-28T18:44:38.928Z,26.43
2017-06-28T18:47:13.232Z,26.42
2017-06-28T18:49:48.863Z,26.43
2017-06-28T18:52:21.456Z,26.43
2017-06-28T18:54:56.804Z,26.43
2017-06-28T18:57:29.771Z,26.42
2017-06-28T19:00:05.745Z,26.43
2017-06-28T19:02:37.696Z,26.43
2017-06-28T19:05:12.678Z,26.43
2017-06-28T19:07:43.158Z,26.43
2017-06-28T19:10:16.454Z,26.43
2017-06-28T19:12:50.764Z,26.41
2017-06-28T19:15:24.056Z,26.41
2017-06-28T19:17:58.072Z,26.41
2017-06-28T19:20:35.495Z,26.42
2017-06-28T19:23:09.567Z,26.41
2017-06-28T19:25:41.229Z,26.41
2017-06-28T19:28:18.815Z,26.41
2017-06-28T19:30:54.974Z,26.41
2017-06-28T19:33:27.553Z,26.40
2017-06-28T19:36:01.764Z,26.40
2017-06-28T19:38:35.276Z,26.39
2017-06-28T19:41:07.841Z,26.40
2017-06-28T19:43:43.267Z,26.40
2017-06-28T19:46:14.660Z,26.39
2017-06-28T19:48:52.215Z,26.38
2017-06-28T19:51:24.287Z,26.38
2017-06-28T19:54:02.491Z,26.38
2017-06-28T19:56:41.214Z,26.37
2017-06-28T19:59:15.735Z,26.37
2017-06-28T20:01:52.101Z,26.37
2017-06-28T20:04:28.961Z,26.39
2017-06-28T20:07:05.341Z,26.36
2017-06-28T20:09:39.898Z,26.38
2017-06-28T20:12:29.865Z,26.37
2017-06-28T20:15:02.123Z,26.36
2017-06-28T20:17:35.208Z,26.35
2017-06-28T20:20:09.782Z,26.34
2017-06-28T20:22:44.354Z,26.35
2017-06-28T20:25:18.254Z,26.34
2017-06-28T20:27:55.031Z,26.33
2017-06-28T20:30:27.501Z,26.34
2017-06-28T20:33:04.172Z,26.33
2017-06-28T20:35:40.586Z,26.34
2017-06-28T20:38:17.551Z,26.33
2017-06-28T20:40:51.114Z,26.32
2017-06-28T20:43:21.645Z,26.32
2017-06-28T20:45:58.313Z,26.32
2017-06-28T20:48:32.019Z,26.31
2017-06-28T20:51:08.080Z,26.31
2017-06-28T20:53:44.363Z,26.31
2017-06-28T20:56:18.706Z,26.29
2017-06-28T20:58:53.301Z,26.29
2017-06-28T21:01:26.781Z,26.28
2017-06-28T21:03:58.309Z,26.28
2017-06-28T21:06:31.640Z,26.29
2017-06-28T21:09:08.701Z,26.28
2017-06-28T21:11:42.102Z,26.28
2017-06-28T21:14:13.749Z,26.27
2017-06-28T21:16:44.480Z,26.27
2017-06-28T21:19:15.214Z,26.27
2017-06-28T21:21:49.941Z,26.27
2017-06-28T21:24:22.822Z,26.27
2017-06-28T21:27:00.964Z,26.26
2017-06-28T21:29:35.974Z,26.27
2017-06-28T21:32:07.898Z,26.26
2017-06-28T21:34:40.869Z,26.27
2017-06-28T21:37:17.791Z,26.26
2017-06-28T21:39:55.444Z,26.26
2017-06-28T21:42:31.537Z,26.26
2017-06-28T21:45:05.760Z,26.26
2017-06-28T21:47:40.582Z,26.26
2017-06-28T21:50:18.173Z,26.25
2017-06-28T21:52:50.958Z,26.26
2017-06-28T21:55:26.617Z,26.24
2017-06-28T21:57:59.690Z,26.25
2017-06-28T22:00:30.560Z,26.25
2017-06-28T22:03:03.524Z,26.25
2017-06-28T22:05:40.080Z,26.25
2017-06-28T22:08:13.580Z,26.24
2017-06-28T22:10:45.643Z,26.24
2017-06-28T22:33:32.516Z,26.23
2017-06-28T22:36:07.302Z,26.23
2017-06-28T22:38:41.093Z,26.22
2017-06-28T22:41:16.061Z,26.22
2017-06-28T22:43:49.742Z,26.22
2017-06-28T22:46:25.904Z,26.22
2017-06-28T22:49:03.287Z,26.18
2017-06-28T22:51:37.212Z,26.19
2017-06-28T22:54:12.022Z,26.21
2017-06-28T22:56:45.906Z,26.22
2017-06-28T22:59:19.430Z,26.20
2017-06-28T23:01:51.812Z,26.21
2017-06-28T23:04:23.453Z,26.20
2017-06-28T23:06:53.985Z,26.20
2017-06-28T23:09:28.299Z,26.20
2017-06-28T23:12:03.238Z,26.19
2017-06-28T23:14:35.680Z,26.20
2017-06-28T23:17:10.942Z,26.19
2017-06-28T23:19:47.593Z,26.20
2017-06-28T23:22:25.924Z,26.20
2017-06-28T23:25:00.529Z,26.20
2017-06-28T23:27:35.498Z,26.19
2017-06-28T23:30:06.470Z,26.19
2017-06-28T23:32:42.178Z,26.19
2017-06-28T23:35:17.503Z,26.18
